sensor_id;sensor_type;location;lat;lon;timestamp;P1;durP1;ratioP1;P2;durP2;ratioP2
14209;SDS011;7188;56.070;12.698;2023-03-22T00:00:24;26.13;;;17.33;;
14209;SDS011;7188;56.070;12.698;2023-03-22T00:02:51;25.17;;;17.70;;
14209;SDS011;7188;56.070;12.698;2023-03-22T00:05:19;27.57;;;19.20;;
14209;SDS011;7188;56.070;12.698;2023-03-22T00:07:45;29.63;;;19.60;;
14209;SDS011;7188;56.070;12.698;2023-03-22T00:10:14;26.93;;;19.07;;
14209;SDS011;7188;56.070;12.698;2023-03-22T00:12:40;34.50;;;22.67;;
14209;SDS011;7188;56.070;12.698;2023-03-22T00:15:06;30.10;;;20.87;;
14209;SDS011;7188;56.070;12.698;2023-03-22T00:17:33;35.33;;;22.43;;
14209;SDS011;7188;56.070;12.698;2023-03-22T00:20:00;32.00;;;22.07;;
14209;SDS011;7188;56.070;12.698;2023-03-22T00:22:30;31.33;;;22.53;;
14209;SDS011;7188;56.070;12.698;2023-03-22T00:24:58;40.00;;;24.67;;
14209;SDS011;7188;56.070;12.698;2023-03-22T00:27:24;34.17;;;24.13;;
14209;SDS011;7188;56.070;12.698;2023-03-22T00:29:52;35.50;;;23.20;;
14209;SDS011;7188;56.070;12.698;2023-03-22T00:32:18;37.30;;;25.00;;
14209;SDS011;7188;56.070;12.698;2023-03-22T00:34:44;38.23;;;25.40;;
14209;SDS011;7188;56.070;12.698;2023-03-22T00:37:10;41.33;;;25.40;;
14209;SDS011;7188;56.070;12.698;2023-03-22T00:39:35;40.13;;;26.30;;
14209;SDS011;7188;56.070;12.698;2023-03-22T00:42:02;37.07;;;25.87;;
14209;SDS011;7188;56.070;12.698;2023-03-22T00:44:29;41.07;;;26.73;;
14209;SDS011;7188;56.070;12.698;2023-03-22T00:46:55;46.73;;;29.27;;
14209;SDS011;7188;56.070;12.698;2023-03-22T00:49:21;42.17;;;26.67;;
14209;SDS011;7188;56.070;12.698;2023-03-22T00:51:46;42.10;;;27.10;;
14209;SDS011;7188;56.070;12.698;2023-03-22T00:54:18;44.23;;;26.90;;
14209;SDS011;7188;56.070;12.698;2023-03-22T00:56:44;46.83;;;29.07;;
14209;SDS011;7188;56.070;12.698;2023-03-22T00:59:10;51.60;;;31.07;;
14209;SDS011;7188;56.070;12.698;2023-03-22T01:01:37;50.33;;;30.53;;
14209;SDS011;7188;56.070;12.698;2023-03-22T01:04:03;51.03;;;29.73;;
14209;SDS011;7188;56.070;12.698;2023-03-22T01:06:29;53.53;;;31.33;;
14209;SDS011;7188;56.070;12.698;2023-03-22T01:08:56;50.57;;;29.63;;
14209;SDS011;7188;56.070;12.698;2023-03-22T01:11:21;59.27;;;35.10;;
14209;SDS011;7188;56.070;12.698;2023-03-22T01:13:48;56.10;;;33.67;;
14209;SDS011;7188;56.070;12.698;2023-03-22T01:16:14;57.67;;;34.13;;
14209;SDS011;7188;56.070;12.698;2023-03-22T01:18:41;61.03;;;37.47;;
14209;SDS011;7188;56.070;12.698;2023-03-22T01:21:07;57.20;;;36.53;;
14209;SDS011;7188;56.070;12.698;2023-03-22T01:23:33;61.23;;;35.87;;
14209;SDS011;7188;56.070;12.698;2023-03-22T01:25:59;60.87;;;36.47;;
14209;SDS011;7188;56.070;12.698;2023-03-22T01:28:25;66.83;;;38.93;;
14209;SDS011;7188;56.070;12.698;2023-03-22T01:30:52;56.73;;;37.00;;
14209;SDS011;7188;56.070;12.698;2023-03-22T01:33:17;61.83;;;37.60;;
14209;SDS011;7188;56.070;12.698;2023-03-22T01:35:43;64.93;;;38.10;;
14209;SDS011;7188;56.070;12.698;2023-03-22T01:38:09;64.30;;;39.03;;
14209;SDS011;7188;56.070;12.698;2023-03-22T01:40:35;62.80;;;38.67;;
14209;SDS011;7188;56.070;12.698;2023-03-22T01:43:01;66.20;;;39.30;;
14209;SDS011;7188;56.070;12.698;2023-03-22T01:48:00;61.87;;;37.67;;
14209;SDS011;7188;56.070;12.698;2023-03-22T01:50:39;61.57;;;37.37;;
14209;SDS011;7188;56.070;12.698;2023-03-22T01:53:09;70.03;;;40.60;;
14209;SDS011;7188;56.070;12.698;2023-03-22T01:55:38;66.50;;;40.30;;
14209;SDS011;7188;56.070;12.698;2023-03-22T02:01:00;65.43;;;38.07;;
14209;SDS011;7188;56.070;12.698;2023-03-22T02:03:31;55.73;;;35.80;;
14209;SDS011;7188;56.070;12.698;2023-03-22T02:06:16;61.27;;;37.70;;
14209;SDS011;7188;56.070;12.698;2023-03-22T02:08:42;65.47;;;40.03;;
14209;SDS011;7188;56.070;12.698;2023-03-22T02:11:12;58.47;;;36.93;;
14209;SDS011;7188;56.070;12.698;2023-03-22T02:27:17;55.83;;;36.43;;
14209;SDS011;7188;56.070;12.698;2023-03-22T02:30:03;55.83;;;34.97;;
14209;SDS011;7188;56.070;12.698;2023-03-22T02:32:51;55.10;;;34.50;;
14209;SDS011;7188;56.070;12.698;2023-03-22T02:41:26;54.63;;;33.37;;
14209;SDS011;7188;56.070;12.698;2023-03-22T02:46:42;56.07;;;34.50;;
14209;SDS011;7188;56.070;12.698;2023-03-22T02:49:13;60.03;;;38.87;;
14209;SDS011;7188;56.070;12.698;2023-03-22T02:54:09;60.37;;;38.40;;
14209;SDS011;7188;56.070;12.698;2023-03-22T02:56:55;67.37;;;39.73;;
14209;SDS011;7188;56.070;12.698;2023-03-22T02:59:28;62.30;;;37.43;;
14209;SDS011;7188;56.070;12.698;2023-03-22T03:01:57;60.70;;;37.83;;
14209;SDS011;7188;56.070;12.698;2023-03-22T03:04:27;56.93;;;36.37;;
14209;SDS011;7188;56.070;12.698;2023-03-22T03:06:56;63.73;;;38.63;;
14209;SDS011;7188;56.070;12.698;2023-03-22T03:09:29;66.23;;;38.17;;
14209;SDS011;7188;56.070;12.698;2023-03-22T03:11:55;65.80;;;41.37;;
14209;SDS011;7188;56.070;12.698;2023-03-22T03:14:26;63.63;;;39.27;;
14209;SDS011;7188;56.070;12.698;2023-03-22T03:25:31;61.57;;;39.07;;
14209;SDS011;7188;56.070;12.698;2023-03-22T03:28:22;67.40;;;39.87;;
14209;SDS011;7188;56.070;12.698;2023-03-22T03:31:04;63.27;;;37.97;;
14209;SDS011;7188;56.070;12.698;2023-03-22T03:33:36;67.23;;;39.33;;
14209;SDS011;7188;56.070;12.698;2023-03-22T03:36:08;64.43;;;40.00;;
14209;SDS011;7188;56.070;12.698;2023-03-22T03:38:40;65.47;;;38.30;;
14209;SDS011;7188;56.070;12.698;2023-03-22T03:41:27;64.93;;;39.87;;
14209;SDS011;7188;56.070;12.698;2023-03-22T03:43:54;60.77;;;36.77;;
14209;SDS011;7188;56.070;12.698;2023-03-22T03:46:22;74.73;;;41.20;;
14209;SDS011;7188;56.070;12.698;2023-03-22T03:48:48;60.07;;;37.03;;
14209;SDS011;7188;56.070;12.698;2023-03-22T03:51:16;60.37;;;36.33;;
14209;SDS011;7188;56.070;12.698;2023-03-22T03:53:42;62.87;;;35.67;;
14209;SDS011;7188;56.070;12.698;2023-03-22T03:56:08;64.07;;;38.00;;
14209;SDS011;7188;56.070;12.698;2023-03-22T03:58:34;65.27;;;38.90;;
14209;SDS011;7188;56.070;12.698;2023-03-22T04:01:00;70.80;;;41.57;;
14209;SDS011;7188;56.070;12.698;2023-03-22T04:03:27;65.17;;;37.97;;
14209;SDS011;7188;56.070;12.698;2023-03-22T04:05:53;66.63;;;37.90;;
14209;SDS011;7188;56.070;12.698;2023-03-22T04:08:19;63.00;;;37.67;;
14209;SDS011;7188;56.070;12.698;2023-03-22T04:10:48;60.87;;;38.63;;
14209;SDS011;7188;56.070;12.698;2023-03-22T04:13:15;67.43;;;40.03;;
14209;SDS011;7188;56.070;12.698;2023-03-22T04:15:42;69.90;;;42.43;;
14209;SDS011;7188;56.070;12.698;2023-03-22T04:18:07;66.57;;;41.17;;
14209;SDS011;7188;56.070;12.698;2023-03-22T04:20:35;70.00;;;42.10;;
14209;SDS011;7188;56.070;12.698;2023-03-22T04:23:03;70.03;;;42.00;;
14209;SDS011;7188;56.070;12.698;2023-03-22T04:25:28;69.57;;;41.70;;
14209;SDS011;7188;56.070;12.698;2023-03-22T04:27:54;66.13;;;41.50;;
14209;SDS011;7188;56.070;12.698;2023-03-22T04:30:20;71.47;;;42.70;;
14209;SDS011;7188;56.070;12.698;2023-03-22T04:32:47;69.77;;;41.77;;
14209;SDS011;7188;56.070;12.698;2023-03-22T04:35:14;70.27;;;41.57;;
14209;SDS011;7188;56.070;12.698;2023-03-22T04:37:40;72.00;;;43.00;;
14209;SDS011;7188;56.070;12.698;2023-03-22T04:40:07;73.77;;;43.67;;
14209;SDS011;7188;56.070;12.698;2023-03-22T04:42:34;72.43;;;43.67;;
14209;SDS011;7188;56.070;12.698;2023-03-22T04:45:00;73.70;;;44.80;;
14209;SDS011;7188;56.070;12.698;2023-03-22T04:47:28;70.57;;;43.23;;
14209;SDS011;7188;56.070;12.698;2023-03-22T04:49:53;70.50;;;43.03;;
14209;SDS011;7188;56.070;12.698;2023-03-22T04:52:19;79.87;;;45.73;;
14209;SDS011;7188;56.070;12.698;2023-03-22T04:54:45;80.07;;;45.07;;
14209;SDS011;7188;56.070;12.698;2023-03-22T04:57:10;70.87;;;45.67;;
14209;SDS011;7188;56.070;12.698;2023-03-22T04:59:36;69.70;;;42.80;;
14209;SDS011;7188;56.070;12.698;2023-03-22T05:02:02;69.87;;;43.47;;
14209;SDS011;7188;56.070;12.698;2023-03-22T05:04:28;72.23;;;44.03;;
14209;SDS011;7188;56.070;12.698;2023-03-22T05:06:53;71.43;;;45.00;;
14209;SDS011;7188;56.070;12.698;2023-03-22T05:09:19;79.17;;;46.93;;
14209;SDS011;7188;56.070;12.698;2023-03-22T05:11:45;71.57;;;43.70;;
14209;SDS011;7188;56.070;12.698;2023-03-22T05:14:10;74.17;;;47.17;;
14209;SDS011;7188;56.070;12.698;2023-03-22T05:16:36;78.80;;;44.57;;
14209;SDS011;7188;56.070;12.698;2023-03-22T05:19:05;70.53;;;44.80;;
14209;SDS011;7188;56.070;12.698;2023-03-22T05:21:37;73.53;;;44.30;;
14209;SDS011;7188;56.070;12.698;2023-03-22T05:24:05;69.33;;;41.63;;
14209;SDS011;7188;56.070;12.698;2023-03-22T05:26:32;65.73;;;43.30;;
14209;SDS011;7188;56.070;12.698;2023-03-22T05:28:57;69.33;;;42.87;;
14209;SDS011;7188;56.070;12.698;2023-03-22T05:31:23;67.83;;;41.10;;
14209;SDS011;7188;56.070;12.698;2023-03-22T05:33:52;68.30;;;43.03;;
14209;SDS011;7188;56.070;12.698;2023-03-22T05:36:19;66.13;;;41.17;;
14209;SDS011;7188;56.070;12.698;2023-03-22T05:38:47;67.47;;;42.03;;
14209;SDS011;7188;56.070;12.698;2023-03-22T05:41:12;67.23;;;42.73;;
14209;SDS011;7188;56.070;12.698;2023-03-22T05:43:38;67.07;;;43.07;;
14209;SDS011;7188;56.070;12.698;2023-03-22T05:46:08;64.93;;;41.03;;
14209;SDS011;7188;56.070;12.698;2023-03-22T05:48:36;66.17;;;42.63;;
14209;SDS011;7188;56.070;12.698;2023-03-22T05:51:06;71.43;;;44.03;;
14209;SDS011;7188;56.070;12.698;2023-03-22T05:53:33;68.53;;;43.97;;
14209;SDS011;7188;56.070;12.698;2023-03-22T05:55:59;69.33;;;45.50;;
14209;SDS011;7188;56.070;12.698;2023-03-22T05:58:29;69.13;;;43.57;;
14209;SDS011;7188;56.070;12.698;2023-03-22T06:01:03;68.57;;;44.40;;
14209;SDS011;7188;56.070;12.698;2023-03-22T06:03:30;70.30;;;44.43;;
14209;SDS011;7188;56.070;12.698;2023-03-22T06:05:55;72.00;;;45.63;;
14209;SDS011;7188;56.070;12.698;2023-03-22T06:08:21;69.57;;;44.00;;
14209;SDS011;7188;56.070;12.698;2023-03-22T06:10:49;64.27;;;42.97;;
14209;SDS011;7188;56.070;12.698;2023-03-22T06:13:24;69.40;;;43.90;;
14209;SDS011;7188;56.070;12.698;2023-03-22T06:15:50;67.23;;;44.77;;
14209;SDS011;7188;56.070;12.698;2023-03-22T06:18:15;66.93;;;43.20;;
14209;SDS011;7188;56.070;12.698;2023-03-22T06:20:41;74.70;;;46.53;;
14209;SDS011;7188;56.070;12.698;2023-03-22T06:23:07;72.80;;;50.17;;
14209;SDS011;7188;56.070;12.698;2023-03-22T06:25:33;65.43;;;43.83;;
14209;SDS011;7188;56.070;12.698;2023-03-22T06:27:59;63.57;;;43.23;;
14209;SDS011;7188;56.070;12.698;2023-03-22T06:30:25;59.17;;;41.03;;
14209;SDS011;7188;56.070;12.698;2023-03-22T06:32:51;68.17;;;44.20;;
14209;SDS011;7188;56.070;12.698;2023-03-22T06:35:18;64.00;;;41.57;;
14209;SDS011;7188;56.070;12.698;2023-03-22T06:37:44;65.07;;;41.80;;
14209;SDS011;7188;56.070;12.698;2023-03-22T06:40:10;66.83;;;42.80;;
14209;SDS011;7188;56.070;12.698;2023-03-22T06:42:36;65.63;;;43.37;;
14209;SDS011;7188;56.070;12.698;2023-03-22T06:45:02;67.03;;;40.93;;
14209;SDS011;7188;56.070;12.698;2023-03-22T06:47:28;66.77;;;42.27;;
14209;SDS011;7188;56.070;12.698;2023-03-22T06:49:54;64.73;;;43.27;;
14209;SDS011;7188;56.070;12.698;2023-03-22T06:52:19;63.53;;;44.30;;
14209;SDS011;7188;56.070;12.698;2023-03-22T06:54:45;64.03;;;42.83;;
14209;SDS011;7188;56.070;12.698;2023-03-22T06:57:11;68.70;;;44.73;;
14209;SDS011;7188;56.070;12.698;2023-03-22T06:59:37;63.13;;;41.13;;
14209;SDS011;7188;56.070;12.698;2023-03-22T07:02:02;58.80;;;40.33;;
14209;SDS011;7188;56.070;12.698;2023-03-22T07:04:28;67.17;;;42.90;;
14209;SDS011;7188;56.070;12.698;2023-03-22T07:06:54;68.40;;;42.60;;
14209;SDS011;7188;56.070;12.698;2023-03-22T07:09:21;60.80;;;41.80;;
14209;SDS011;7188;56.070;12.698;2023-03-22T07:11:48;61.83;;;42.13;;
14209;SDS011;7188;56.070;12.698;2023-03-22T07:14:14;64.03;;;42.57;;
14209;SDS011;7188;56.070;12.698;2023-03-22T07:16:40;64.67;;;41.13;;
14209;SDS011;7188;56.070;12.698;2023-03-22T07:19:05;70.10;;;41.00;;
14209;SDS011;7188;56.070;12.698;2023-03-22T07:21:31;65.23;;;42.00;;
14209;SDS011;7188;56.070;12.698;2023-03-22T07:23:57;64.30;;;42.90;;
14209;SDS011;7188;56.070;12.698;2023-03-22T07:26:23;63.83;;;43.37;;
14209;SDS011;7188;56.070;12.698;2023-03-22T07:28:50;61.10;;;42.07;;
14209;SDS011;7188;56.070;12.698;2023-03-22T07:31:16;64.87;;;42.60;;
14209;SDS011;7188;56.070;12.698;2023-03-22T07:33:42;61.13;;;41.00;;
14209;SDS011;7188;56.070;12.698;2023-03-22T07:36:08;60.73;;;41.53;;
14209;SDS011;7188;56.070;12.698;2023-03-22T07:38:34;61.10;;;42.80;;
14209;SDS011;7188;56.070;12.698;2023-03-22T07:41:00;59.10;;;38.80;;
14209;SDS011;7188;56.070;12.698;2023-03-22T07:43:26;59.47;;;41.07;;
14209;SDS011;7188;56.070;12.698;2023-03-22T07:45:51;54.37;;;39.17;;
14209;SDS011;7188;56.070;12.698;2023-03-22T07:48:18;59.80;;;40.77;;
14209;SDS011;7188;56.070;12.698;2023-03-22T07:50:44;60.40;;;39.90;;
14209;SDS011;7188;56.070;12.698;2023-03-22T07:53:10;57.93;;;40.23;;
14209;SDS011;7188;56.070;12.698;2023-03-22T07:55:37;55.83;;;38.63;;
14209;SDS011;7188;56.070;12.698;2023-03-22T07:58:04;57.97;;;39.03;;
14209;SDS011;7188;56.070;12.698;2023-03-22T08:00:30;56.47;;;36.47;;
14209;SDS011;7188;56.070;12.698;2023-03-22T08:02:56;55.53;;;38.17;;
14209;SDS011;7188;56.070;12.698;2023-03-22T08:05:21;56.87;;;38.47;;
14209;SDS011;7188;56.070;12.698;2023-03-22T08:07:48;51.90;;;36.03;;
14209;SDS011;7188;56.070;12.698;2023-03-22T08:10:15;52.57;;;36.77;;
14209;SDS011;7188;56.070;12.698;2023-03-22T08:12:41;48.83;;;35.17;;
14209;SDS011;7188;56.070;12.698;2023-03-22T08:15:08;48.70;;;34.93;;
14209;SDS011;7188;56.070;12.698;2023-03-22T08:17:34;48.43;;;33.33;;
14209;SDS011;7188;56.070;12.698;2023-03-22T08:20:00;48.27;;;31.57;;
14209;SDS011;7188;56.070;12.698;2023-03-22T08:22:35;55.27;;;34.90;;
14209;SDS011;7188;56.070;12.698;2023-03-22T08:25:02;43.50;;;32.47;;
14209;SDS011;7188;56.070;12.698;2023-03-22T08:27:29;47.10;;;32.80;;
14209;SDS011;7188;56.070;12.698;2023-03-22T08:29:55;47.97;;;33.80;;
14209;SDS011;7188;56.070;12.698;2023-03-22T08:32:22;47.10;;;32.47;;
14209;SDS011;7188;56.070;12.698;2023-03-22T08:34:47;46.80;;;31.27;;
14209;SDS011;7188;56.070;12.698;2023-03-22T08:37:13;45.87;;;32.70;;
14209;SDS011;7188;56.070;12.698;2023-03-22T08:39:45;45.23;;;33.10;;
14209;SDS011;7188;56.070;12.698;2023-03-22T08:42:11;45.40;;;33.17;;
14209;SDS011;7188;56.070;12.698;2023-03-22T08:44:36;46.07;;;31.63;;
14209;SDS011;7188;56.070;12.698;2023-03-22T08:47:02;49.07;;;33.23;;
14209;SDS011;7188;56.070;12.698;2023-03-22T08:49:28;37.57;;;27.57;;
14209;SDS011;7188;56.070;12.698;2023-03-22T08:51:53;48.53;;;30.23;;
14209;SDS011;7188;56.070;12.698;2023-03-22T08:54:21;44.03;;;29.60;;
14209;SDS011;7188;56.070;12.698;2023-03-22T08:56:47;42.93;;;30.40;;
14209;SDS011;7188;56.070;12.698;2023-03-22T08:59:14;37.67;;;29.37;;
14209;SDS011;7188;56.070;12.698;2023-03-22T09:01:46;36.97;;;27.77;;
14209;SDS011;7188;56.070;12.698;2023-03-22T09:04:12;39.60;;;26.73;;
14209;SDS011;7188;56.070;12.698;2023-03-22T09:06:37;34.73;;;26.77;;
14209;SDS011;7188;56.070;12.698;2023-03-22T09:09:06;35.93;;;27.00;;
14209;SDS011;7188;56.070;12.698;2023-03-22T09:11:32;35.27;;;27.30;;
14209;SDS011;7188;56.070;12.698;2023-03-22T09:13:59;37.23;;;27.17;;
14209;SDS011;7188;56.070;12.698;2023-03-22T09:16:25;39.60;;;27.40;;
14209;SDS011;7188;56.070;12.698;2023-03-22T09:18:50;34.03;;;27.13;;
14209;SDS011;7188;56.070;12.698;2023-03-22T09:21:16;34.97;;;27.80;;
14209;SDS011;7188;56.070;12.698;2023-03-22T09:23:41;34.87;;;26.83;;
14209;SDS011;7188;56.070;12.698;2023-03-22T09:26:11;40.07;;;26.47;;
14209;SDS011;7188;56.070;12.698;2023-03-22T09:28:37;36.10;;;26.67;;
14209;SDS011;7188;56.070;12.698;2023-03-22T09:31:03;33.83;;;26.97;;
14209;SDS011;7188;56.070;12.698;2023-03-22T09:33:31;32.63;;;29.02;;
14209;SDS011;7188;56.070;12.698;2023-03-22T09:35:57;34.27;;;24.67;;
14209;SDS011;7188;56.070;12.698;2023-03-22T09:38:23;38.47;;;26.43;;
14209;SDS011;7188;56.070;12.698;2023-03-22T09:40:50;35.40;;;25.70;;
14209;SDS011;7188;56.070;12.698;2023-03-22T09:43:24;36.63;;;24.67;;
14209;SDS011;7188;56.070;12.698;2023-03-22T09:45:57;31.50;;;23.30;;
14209;SDS011;7188;56.070;12.698;2023-03-22T09:48:27;35.13;;;26.13;;
14209;SDS011;7188;56.070;12.698;2023-03-22T09:50:55;36.47;;;24.83;;
14209;SDS011;7188;56.070;12.698;2023-03-22T09:53:22;35.43;;;27.50;;
14209;SDS011;7188;56.070;12.698;2023-03-22T09:55:55;36.30;;;27.40;;
14209;SDS011;7188;56.070;12.698;2023-03-22T09:58:42;35.30;;;25.10;;
14209;SDS011;7188;56.070;12.698;2023-03-22T10:01:54;33.20;;;24.97;;
14209;SDS011;7188;56.070;12.698;2023-03-22T10:04:21;33.50;;;26.40;;
14209;SDS011;7188;56.070;12.698;2023-03-22T10:10:02;33.63;;;25.03;;
14209;SDS011;7188;56.070;12.698;2023-03-22T10:13:04;37.07;;;24.77;;
14209;SDS011;7188;56.070;12.698;2023-03-22T10:15:43;35.43;;;25.93;;
14209;SDS011;7188;56.070;12.698;2023-03-22T10:18:24;34.23;;;25.40;;
14209;SDS011;7188;56.070;12.698;2023-03-22T10:21:04;34.57;;;25.10;;
14209;SDS011;7188;56.070;12.698;2023-03-22T10:26:01;35.63;;;25.20;;
14209;SDS011;7188;56.070;12.698;2023-03-22T10:30:58;29.50;;;23.43;;
14209;SDS011;7188;56.070;12.698;2023-03-22T10:33:58;30.93;;;23.20;;
14209;SDS011;7188;56.070;12.698;2023-03-22T10:36:20;28.67;;;23.00;;
14209;SDS011;7188;56.070;12.698;2023-03-22T10:38:49;28.90;;;23.10;;
14209;SDS011;7188;56.070;12.698;2023-03-22T10:41:22;28.93;;;23.33;;
14209;SDS011;7188;56.070;12.698;2023-03-22T10:43:59;27.70;;;22.93;;
14209;SDS011;7188;56.070;12.698;2023-03-22T10:46:28;27.00;;;23.00;;
14209;SDS011;7188;56.070;12.698;2023-03-22T10:48:58;31.07;;;21.97;;
14209;SDS011;7188;56.070;12.698;2023-03-22T10:54:13;27.27;;;21.87;;
14209;SDS011;7188;56.070;12.698;2023-03-22T10:56:41;31.03;;;22.90;;
14209;SDS011;7188;56.070;12.698;2023-03-22T10:59:07;23.13;;;19.87;;
14209;SDS011;7188;56.070;12.698;2023-03-22T11:01:36;27.47;;;21.90;;
14209;SDS011;7188;56.070;12.698;2023-03-22T11:04:09;25.70;;;21.60;;
14209;SDS011;7188;56.070;12.698;2023-03-22T11:06:53;29.40;;;22.43;;
14209;SDS011;7188;56.070;12.698;2023-03-22T11:09:20;31.00;;;21.97;;
14209;SDS011;7188;56.070;12.698;2023-03-22T11:17:13;29.23;;;20.40;;
14209;SDS011;7188;56.070;12.698;2023-03-22T11:19:59;27.50;;;22.40;;
14209;SDS011;7188;56.070;12.698;2023-03-22T11:22:40;27.97;;;23.47;;
14209;SDS011;7188;56.070;12.698;2023-03-22T11:25:13;31.40;;;24.00;;
14209;SDS011;7188;56.070;12.698;2023-03-22T11:27:48;31.63;;;23.87;;
14209;SDS011;7188;56.070;12.698;2023-03-22T11:30:25;38.57;;;25.53;;
14209;SDS011;7188;56.070;12.698;2023-03-22T11:32:59;35.90;;;27.33;;
14209;SDS011;7188;56.070;12.698;2023-03-22T11:35:31;41.40;;;27.97;;
14209;SDS011;7188;56.070;12.698;2023-03-22T11:37:59;36.07;;;28.33;;
14209;SDS011;7188;56.070;12.698;2023-03-22T11:40:27;38.00;;;28.83;;
14209;SDS011;7188;56.070;12.698;2023-03-22T11:45:55;37.40;;;27.50;;
14209;SDS011;7188;56.070;12.698;2023-03-22T11:48:23;40.80;;;29.90;;
14209;SDS011;7188;56.070;12.698;2023-03-22T11:50:52;39.23;;;27.77;;
14209;SDS011;7188;56.070;12.698;2023-03-22T11:53:23;37.97;;;27.27;;
14209;SDS011;7188;56.070;12.698;2023-03-22T11:55:52;38.30;;;27.10;;
14209;SDS011;7188;56.070;12.698;2023-03-22T11:58:42;34.47;;;25.33;;
14209;SDS011;7188;56.070;12.698;2023-03-22T12:01:31;37.73;;;26.27;;
14209;SDS011;7188;56.070;12.698;2023-03-22T12:03:59;35.60;;;26.50;;
14209;SDS011;7188;56.070;12.698;2023-03-22T12:06:30;36.37;;;26.60;;
14209;SDS011;7188;56.070;12.698;2023-03-22T12:09:45;38.80;;;27.10;;
14209;SDS011;7188;56.070;12.698;2023-03-22T12:11:53;40.37;;;29.07;;
14209;SDS011;7188;56.070;12.698;2023-03-22T12:14:25;40.67;;;29.20;;
14209;SDS011;7188;56.070;12.698;2023-03-22T12:16:56;38.30;;;28.47;;
14209;SDS011;7188;56.070;12.698;2023-03-22T12:19:42;34.47;;;27.33;;
14209;SDS011;7188;56.070;12.698;2023-03-22T12:22:16;33.90;;;26.40;;
14209;SDS011;7188;56.070;12.698;2023-03-22T12:24:50;40.23;;;26.83;;
14209;SDS011;7188;56.070;12.698;2023-03-22T12:27:17;34.70;;;25.77;;
14209;SDS011;7188;56.070;12.698;2023-03-22T12:30:17;35.10;;;27.20;;
14209;SDS011;7188;56.070;12.698;2023-03-22T12:32:47;32.13;;;24.10;;
14209;SDS011;7188;56.070;12.698;2023-03-22T12:35:19;34.77;;;24.50;;
14209;SDS011;7188;56.070;12.698;2023-03-22T12:37:50;40.20;;;26.87;;
14209;SDS011;7188;56.070;12.698;2023-03-22T12:40:33;38.13;;;25.67;;
14209;SDS011;7188;56.070;12.698;2023-03-22T12:43:10;33.27;;;24.77;;
14209;SDS011;7188;56.070;12.698;2023-03-22T12:45:41;34.03;;;23.73;;
14209;SDS011;7188;56.070;12.698;2023-03-22T12:51:05;34.43;;;23.50;;
14209;SDS011;7188;56.070;12.698;2023-03-22T12:53:40;32.70;;;21.97;;
14209;SDS011;7188;56.070;12.698;2023-03-22T12:56:52;30.10;;;21.73;;
14209;SDS011;7188;56.070;12.698;2023-03-22T12:59:03;31.80;;;21.80;;
14209;SDS011;7188;56.070;12.698;2023-03-22T13:01:38;26.87;;;20.40;;
14209;SDS011;7188;56.070;12.698;2023-03-22T13:09:45;26.83;;;20.23;;
14209;SDS011;7188;56.070;12.698;2023-03-22T13:30:21;29.43;;;18.20;;
14209;SDS011;7188;56.070;12.698;2023-03-22T13:38:18;24.17;;;17.07;;
14209;SDS011;7188;56.070;12.698;2023-03-22T13:40:51;22.80;;;15.63;;
14209;SDS011;7188;56.070;12.698;2023-03-22T13:46:12;20.63;;;14.47;;
14209;SDS011;7188;56.070;12.698;2023-03-22T13:51:17;21.57;;;15.60;;
14209;SDS011;7188;56.070;12.698;2023-03-22T13:53:57;27.70;;;17.90;;
14209;SDS011;7188;56.070;12.698;2023-03-22T13:56:30;27.63;;;17.70;;
14209;SDS011;7188;56.070;12.698;2023-03-22T13:58:57;24.80;;;17.47;;
14209;SDS011;7188;56.070;12.698;2023-03-22T14:03:59;26.80;;;19.47;;
14209;SDS011;7188;56.070;12.698;2023-03-22T14:06:29;28.03;;;19.20;;
14209;SDS011;7188;56.070;12.698;2023-03-22T14:08:58;24.77;;;18.37;;
14209;SDS011;7188;56.070;12.698;2023-03-22T14:11:43;31.00;;;20.80;;
14209;SDS011;7188;56.070;12.698;2023-03-22T14:14:21;27.20;;;19.47;;
14209;SDS011;7188;56.070;12.698;2023-03-22T14:17:01;22.17;;;17.93;;
14209;SDS011;7188;56.070;12.698;2023-03-22T14:19:37;23.73;;;18.40;;
14209;SDS011;7188;56.070;12.698;2023-03-22T14:22:06;28.83;;;19.77;;
14209;SDS011;7188;56.070;12.698;2023-03-22T14:24:38;24.03;;;18.50;;
14209;SDS011;7188;56.070;12.698;2023-03-22T14:27:05;26.10;;;20.30;;
14209;SDS011;7188;56.070;12.698;2023-03-22T14:32:13;27.23;;;20.67;;
14209;SDS011;7188;56.070;12.698;2023-03-22T14:34:41;26.40;;;19.07;;
14209;SDS011;7188;56.070;12.698;2023-03-22T14:37:12;26.13;;;19.90;;
14209;SDS011;7188;56.070;12.698;2023-03-22T14:39:39;26.90;;;19.03;;
14209;SDS011;7188;56.070;12.698;2023-03-22T14:42:13;26.77;;;19.23;;
14209;SDS011;7188;56.070;12.698;2023-03-22T14:44:47;27.47;;;19.17;;
14209;SDS011;7188;56.070;12.698;2023-03-22T14:49:42;23.03;;;18.23;;
14209;SDS011;7188;56.070;12.698;2023-03-22T14:52:26;27.13;;;19.73;;
14209;SDS011;7188;56.070;12.698;2023-03-22T14:54:56;26.13;;;19.20;;
14209;SDS011;7188;56.070;12.698;2023-03-22T14:57:24;26.27;;;18.80;;
14209;SDS011;7188;56.070;12.698;2023-03-22T15:00:01;26.57;;;18.97;;
14209;SDS011;7188;56.070;12.698;2023-03-22T15:02:40;30.20;;;19.53;;
14209;SDS011;7188;56.070;12.698;2023-03-22T15:05:08;24.77;;;20.17;;
14209;SDS011;7188;56.070;12.698;2023-03-22T15:07:47;31.57;;;21.40;;
14209;SDS011;7188;56.070;12.698;2023-03-22T15:10:18;24.27;;;19.60;;
14209;SDS011;7188;56.070;12.698;2023-03-22T15:12:50;29.27;;;19.67;;
14209;SDS011;7188;56.070;12.698;2023-03-22T15:15:18;26.20;;;19.73;;
14209;SDS011;7188;56.070;12.698;2023-03-22T15:17:54;27.83;;;20.57;;
14209;SDS011;7188;56.070;12.698;2023-03-22T15:20:22;23.60;;;18.93;;
14209;SDS011;7188;56.070;12.698;2023-03-22T15:22:52;24.83;;;20.03;;
14209;SDS011;7188;56.070;12.698;2023-03-22T15:25:25;26.93;;;20.47;;
14209;SDS011;7188;56.070;12.698;2023-03-22T15:27:57;23.83;;;18.57;;
14209;SDS011;7188;56.070;12.698;2023-03-22T15:30:30;29.27;;;20.50;;
14209;SDS011;7188;56.070;12.698;2023-03-22T15:33:01;25.63;;;19.10;;
14209;SDS011;7188;56.070;12.698;2023-03-22T15:35:30;30.60;;;19.40;;
14209;SDS011;7188;56.070;12.698;2023-03-22T15:37:57;28.00;;;19.63;;
14209;SDS011;7188;56.070;12.698;2023-03-22T15:43:14;28.30;;;21.50;;
14209;SDS011;7188;56.070;12.698;2023-03-22T15:45:42;27.63;;;21.53;;
14209;SDS011;7188;56.070;12.698;2023-03-22T15:48:27;27.00;;;19.97;;
14209;SDS011;7188;56.070;12.698;2023-03-22T15:50:53;26.67;;;20.23;;
14209;SDS011;7188;56.070;12.698;2023-03-22T15:53:26;25.40;;;20.00;;
14209;SDS011;7188;56.070;12.698;2023-03-22T15:55:56;24.60;;;17.57;;
14209;SDS011;7188;56.070;12.698;2023-03-22T15:58:29;21.83;;;18.67;;
14209;SDS011;7188;56.070;12.698;2023-03-22T16:01:13;22.67;;;17.67;;
14209;SDS011;7188;56.070;12.698;2023-03-22T16:03:44;26.53;;;19.40;;
14209;SDS011;7188;56.070;12.698;2023-03-22T16:06:16;24.27;;;17.57;;
14209;SDS011;7188;56.070;12.698;2023-03-22T16:08:42;23.57;;;17.50;;
14209;SDS011;7188;56.070;12.698;2023-03-22T16:11:08;20.73;;;16.73;;
14209;SDS011;7188;56.070;12.698;2023-03-22T16:13:36;20.37;;;15.87;;
14209;SDS011;7188;56.070;12.698;2023-03-22T16:16:02;20.93;;;15.87;;
14209;SDS011;7188;56.070;12.698;2023-03-22T16:18:28;22.97;;;15.67;;
14209;SDS011;7188;56.070;12.698;2023-03-22T16:20:54;16.70;;;14.17;;